This is the latest recevied weather packets stored in our database for station/object TVARMINN. If no packets are shown the sender has not sent any weather packets the latest 10 day(s).
| Time | Temp. | Humidity | Pressure | Rain* | Wind** | Luminosity | Snow |
|---|---|---|---|---|---|---|---|
| 1777239999 | 3.33° C | 63% | 1012.1 hPa | 0 mm | - | - | - |
| 1777238799 | 3.89° C | 60% | 1011.9 hPa | 0 mm | - | - | - |
| 1777237599 | 3.89° C | 57% | 1011.8 hPa | 0 mm | - | - | - |
| 1777236399 | 4.44° C | 54% | 1011.6 hPa | 0 mm | - | - | - |
| 1777235199 | 4.44° C | 53% | 1011.5 hPa | 0 mm | - | - | - |
| 1777233999 | 4.44° C | 50% | 1011.5 hPa | 0 mm | - | - | - |
| 1777232799 | 5° C | 49% | 1011.4 hPa | 0 mm | - | - | - |
| 1777231599 | 5° C | 50% | 1011.3 hPa | 0 mm | - | - | - |
| 1777230398 | 4.44° C | 52% | 1011.2 hPa | 0 mm | - | - | - |
| 1777229199 | 5° C | 49% | 1011.1 hPa | 0 mm | - | - | - |
| 1777227999 | 5.56° C | 47% | 1011 hPa | 0 mm | - | - | - |
| 1777226798 | 5.56° C | 45% | 1010.8 hPa | 0 mm | - | - | - |
| 1777225599 | 6.11° C | 42% | 1010.5 hPa | 0 mm | - | - | - |
| 1777224397 | 5.56° C | 46% | 1010.5 hPa | 0 mm | - | - | - |
| 1777223197 | 6.11° C | 43% | 1010.5 hPa | 0 mm | - | - | - |
| 1777221999 | 6.11° C | 43% | 1010.2 hPa | 0 mm | - | - | - |
| 1777220798 | 6.11° C | 43% | 1010.1 hPa | 0 mm | - | - | - |
| 1777219598 | 6.67° C | 40% | 1009.9 hPa | 0 mm | - | - | - |
| 1777218400 | 7.22° C | 35% | 1009.3 hPa | 0 mm | - | - | - |
| 1777217198 | 7.22° C | 34% | 1009.3 hPa | 0 mm | - | - | - |
| 1777215997 | 7.78° C | 33% | 1008.9 hPa | 0 mm | - | - | - |
| 1777214798 | 7.78° C | 34% | 1008.8 hPa | 0 mm | - | - | - |
| 1777213598 | 7.78° C | 34% | 1008.7 hPa | 0 mm | - | - | - |
| 1777212397 | 7.22° C | 34% | 1008.4 hPa | 0 mm | - | - | - |
| 1777211197 | 6.67° C | 40% | 1008.4 hPa | 0 mm | - | - | - |
* Rain latest hour (hover to see other rain measurements)
** Current wind speed in m/s (hover to see current wind gust speed)